Time;durP1;ratioP1;P1;durP2;ratioP2;P2;SDS_P1;SDS_P2;PMS_P1;PMS_P2;Temp;Humidity;BMP_temperature;BMP_pressure;BME280_temperature;BME280_humidity;BME280_pressure;Samples;Min_cycle;Max_cycle;Signal;HPM_P1;HPM_P2
2021/12/07 00:02:11;;;;;;;52.22;23.30;;;;;;;;;;6207127;28;20378;-65
2021/12/07 00:05:12;;;;;;;54.95;23.75;;;;;;;;;;6204839;28;20049;-61
2021/12/07 00:08:13;;;;;;;55.33;24.42;;;;;;;;;;6200843;28;20541;-64
2021/12/07 00:11:14;;;;;;;50.55;22.00;;;;;;;;;;6201167;28;20079;-61
2021/12/07 00:14:23;;;;;;;50.67;23.30;;;;;;;;;;6202088;28;20532;-62
2021/12/07 00:17:23;;;;;;;49.35;21.58;;;;;;;;;;6199212;28;20054;-62
2021/12/07 00:20:25;;;;;;;48.72;21.25;;;;;;;;;;6207695;28;20046;-66
2021/12/07 00:23:26;;;;;;;52.72;22.73;;;;;;;;;;6201021;28;20531;-62
2021/12/07 00:26:26;;;;;;;52.33;22.23;;;;;;;;;;6223138;28;20164;-59
2021/12/07 00:29:30;;;;;;;50.10;21.48;;;;;;;;;;6199596;28;20993;-65
2021/12/07 00:32:33;;;;;;;48.00;20.27;;;;;;;;;;6200741;28;20078;-65
2021/12/07 00:35:36;;;;;;;52.88;21.10;;;;;;;;;;6198206;28;20793;-63
2021/12/07 00:38:37;;;;;;;50.90;21.55;;;;;;;;;;6198128;28;20641;-63
2021/12/07 00:41:39;;;;;;;49.22;21.35;;;;;;;;;;6214590;28;20053;-63
2021/12/07 00:44:40;;;;;;;43.65;19.48;;;;;;;;;;6208263;28;20145;-59
2021/12/07 00:47:41;;;;;;;50.30;21.23;;;;;;;;;;6211441;28;20056;-60
2021/12/07 00:50:47;;;;;;;50.42;21.60;;;;;;;;;;6200472;28;20046;-61
2021/12/07 00:53:48;;;;;;;43.40;19.58;;;;;;;;;;6201728;28;20165;-61
2021/12/07 00:56:49;;;;;;;44.10;20.52;;;;;;;;;;6203804;28;20145;-61
2021/12/07 00:59:49;;;;;;;43.50;20.17;;;;;;;;;;6196085;28;20053;-63
2021/12/07 01:02:51;;;;;;;42.78;19.75;;;;;;;;;;6204071;28;20053;-61
2021/12/07 01:06:02;;;;;;;48.80;20.83;;;;;;;;;;6202082;28;20041;-61
2021/12/07 01:25:40;;;;;;;40.90;18.95;;;;;;;;;;6201729;28;20088;-60
2021/12/07 01:28:44;;;;;;;42.53;19.50;;;;;;;;;;6201679;28;20390;-63
2021/12/07 01:39:34;;;;;;;41.65;19.38;;;;;;;;;;6199106;28;20050;-60
2021/12/07 01:42:50;;;;;;;42.47;17.85;;;;;;;;;;6198120;28;20062;-59
2021/12/07 01:49:52;;;;;;;37.60;18.55;;;;;;;;;;6200286;28;20540;-62
2021/12/07 02:01:38;;;;;;;42.30;18.52;;;;;;;;;;6202514;28;20141;-61
2021/12/07 02:04:39;;;;;;;37.75;17.77;;;;;;;;;;6197206;28;20050;-65
2021/12/07 02:07:40;;;;;;;38.50;17.38;;;;;;;;;;6203302;28;20042;-60
2021/12/07 02:10:41;;;;;;;47.10;18.98;;;;;;;;;;6199131;28;20137;-62
2021/12/07 02:16:56;;;;;;;47.20;20.55;;;;;;;;;;6202755;28;20148;-62
2021/12/07 02:19:56;;;;;;;42.67;18.80;;;;;;;;;;6207869;28;20493;-62
2021/12/07 02:22:57;;;;;;;41.53;19.20;;;;;;;;;;6206970;28;20041;-61
2021/12/07 02:25:58;;;;;;;43.20;18.60;;;;;;;;;;6208522;28;20061;-61
2021/12/07 02:28:59;;;;;;;39.78;17.27;;;;;;;;;;6208839;28;20142;-62
2021/12/07 02:32:02;;;;;;;43.85;19.00;;;;;;;;;;6208010;28;20047;-66
2021/12/07 02:35:03;;;;;;;46.83;19.45;;;;;;;;;;6204319;28;20042;-59
2021/12/07 02:38:04;;;;;;;42.10;19.07;;;;;;;;;;6207523;28;20067;-64
2021/12/07 02:41:05;;;;;;;40.50;18.05;;;;;;;;;;6207585;28;20049;-66
2021/12/07 02:44:07;;;;;;;40.05;17.70;;;;;;;;;;6207804;28;20046;-62
2021/12/07 02:47:08;;;;;;;39.93;17.90;;;;;;;;;;6204127;28;20053;-61
2021/12/07 02:50:09;;;;;;;38.33;17.35;;;;;;;;;;6206546;28;20303;-62
2021/12/07 02:53:10;;;;;;;43.25;17.42;;;;;;;;;;6206512;28;20034;-62
2021/12/07 02:56:11;;;;;;;41.97;17.33;;;;;;;;;;6204298;28;20544;-63
2021/12/07 02:59:12;;;;;;;43.10;16.95;;;;;;;;;;6207373;28;20041;-60
2021/12/07 03:02:14;;;;;;;45.38;18.83;;;;;;;;;;6200198;28;20054;-59
2021/12/07 03:28:40;;;;;;;41.60;17.45;;;;;;;;;;6202726;28;20077;-59
2021/12/07 03:31:40;;;;;;;47.70;18.98;;;;;;;;;;6191968;28;20064;-66
2021/12/07 03:34:41;;;;;;;44.33;18.60;;;;;;;;;;6205926;28;20042;-66
2021/12/07 03:37:42;;;;;;;49.92;19.15;;;;;;;;;;6205828;28;20409;-61
2021/12/07 03:40:43;;;;;;;52.47;20.33;;;;;;;;;;6202633;28;20077;-63
2021/12/07 03:43:45;;;;;;;54.35;20.80;;;;;;;;;;6205801;28;20056;-61
2021/12/07 03:46:45;;;;;;;52.10;22.50;;;;;;;;;;6212952;28;20050;-60
2021/12/07 03:49:46;;;;;;;48.58;20.70;;;;;;;;;;6202972;28;20046;-63
2021/12/07 03:52:49;;;;;;;49.35;18.05;;;;;;;;;;6205314;28;20085;-64
2021/12/07 03:55:49;;;;;;;50.63;18.33;;;;;;;;;;6206103;28;20437;-60
2021/12/07 03:58:50;;;;;;;50.08;19.10;;;;;;;;;;6207771;28;20054;-60
2021/12/07 04:01:52;;;;;;;54.85;20.27;;;;;;;;;;6206154;28;20052;-62
2021/12/07 04:05:02;;;;;;;51.03;20.48;;;;;;;;;;6200717;28;20129;-59
2021/12/07 04:08:04;;;;;;;55.30;20.13;;;;;;;;;;6202484;28;20053;-62
2021/12/07 04:11:05;;;;;;;52.20;19.35;;;;;;;;;;6204615;28;20158;-61
2021/12/07 04:14:06;;;;;;;51.58;19.23;;;;;;;;;;6203086;28;20451;-60
2021/12/07 04:17:07;;;;;;;51.05;20.63;;;;;;;;;;6202982;28;20065;-59
2021/12/07 04:20:10;;;;;;;45.95;19.50;;;;;;;;;;6205288;28;20069;-59
2021/12/07 04:23:12;;;;;;;55.40;20.80;;;;;;;;;;6200513;28;20049;-60
2021/12/07 04:26:14;;;;;;;52.55;20.75;;;;;;;;;;6202837;28;20137;-63
2021/12/07 04:29:14;;;;;;;50.00;20.27;;;;;;;;;;6203063;28;20573;-60
2021/12/07 04:32:15;;;;;;;54.10;20.38;;;;;;;;;;6200260;28;20105;-64
2021/12/07 04:35:17;;;;;;;45.05;19.58;;;;;;;;;;6203330;28;20050;-60
2021/12/07 04:38:18;;;;;;;50.20;20.40;;;;;;;;;;6203219;28;20104;-60
2021/12/07 04:41:19;;;;;;;53.55;21.42;;;;;;;;;;6192921;28;20050;-62
2021/12/07 04:44:22;;;;;;;52.92;21.65;;;;;;;;;;6205530;28;20054;-62
2021/12/07 04:47:58;;;;;;;51.22;20.40;;;;;;;;;;6211013;28;20045;-60
2021/12/07 04:57:37;;;;;;;51.45;19.80;;;;;;;;;;6202235;28;20054;-59
2021/12/07 05:00:41;;;;;;;56.60;22.33;;;;;;;;;;6203388;28;20117;-60
2021/12/07 05:03:43;;;;;;;52.70;20.85;;;;;;;;;;6202986;28;20064;-60
2021/12/07 05:06:50;;;;;;;58.42;22.63;;;;;;;;;;6205787;28;20053;-64
2021/12/07 05:34:34;;;;;;;52.15;19.88;;;;;;;;;;6203623;28;20466;-60
2021/12/07 05:39:28;;;;;;;57.70;22.15;;;;;;;;;;6199608;28;20058;-62
2021/12/07 05:42:28;;;;;;;57.45;21.83;;;;;;;;;;6201989;28;20485;-62
2021/12/07 05:45:34;;;;;;;57.40;23.33;;;;;;;;;;6209430;28;20050;-60
2021/12/07 05:48:35;;;;;;;63.17;23.38;;;;;;;;;;6208137;28;20045;-60
2021/12/07 05:51:35;;;;;;;61.20;23.70;;;;;;;;;;6207969;28;20057;-59
2021/12/07 05:54:36;;;;;;;59.45;23.00;;;;;;;;;;6209367;28;20050;-60
2021/12/07 05:57:37;;;;;;;60.08;23.65;;;;;;;;;;6205233;28;20976;-63
2021/12/07 06:00:42;;;;;;;59.20;23.60;;;;;;;;;;6210091;28;20097;-60
2021/12/07 06:03:42;;;;;;;53.45;21.40;;;;;;;;;;6207232;28;20159;-65
2021/12/07 06:06:43;;;;;;;52.80;21.63;;;;;;;;;;6203340;28;20857;-60
2021/12/07 06:09:44;;;;;;;56.70;22.23;;;;;;;;;;6207515;28;20046;-59
2021/12/07 06:12:44;;;;;;;57.20;24.30;;;;;;;;;;6209494;28;20050;-66
2021/12/07 06:15:45;;;;;;;62.17;25.00;;;;;;;;;;6206571;28;20121;-62
2021/12/07 06:18:47;;;;;;;62.10;25.02;;;;;;;;;;6206369;28;20049;-61
2021/12/07 06:21:47;;;;;;;66.28;24.75;;;;;;;;;;6214303;28;20399;-62
2021/12/07 06:24:48;;;;;;;65.13;24.00;;;;;;;;;;6207041;28;20154;-62
2021/12/07 06:27:49;;;;;;;55.78;22.20;;;;;;;;;;6206618;28;20409;-61
2021/12/07 06:30:50;;;;;;;63.15;22.90;;;;;;;;;;6206609;28;20409;-64
2021/12/07 06:33:51;;;;;;;62.90;23.42;;;;;;;;;;6205910;28;20145;-63
2021/12/07 06:36:51;;;;;;;61.25;21.88;;;;;;;;;;6207848;28;20038;-60
2021/12/07 06:39:52;;;;;;;62.08;23.67;;;;;;;;;;6208869;28;20701;-61
2021/12/07 06:42:54;;;;;;;54.03;21.48;;;;;;;;;;6205772;28;20447;-61
2021/12/07 06:45:55;;;;;;;56.60;22.17;;;;;;;;;;6204332;28;20038;-60
2021/12/07 06:48:55;;;;;;;62.67;23.08;;;;;;;;;;6208280;28;20050;-60
2021/12/07 06:51:57;;;;;;;55.90;22.27;;;;;;;;;;6202395;28;20045;-64
2021/12/07 06:54:58;;;;;;;61.80;24.33;;;;;;;;;;6206363;28;20053;-60
2021/12/07 06:57:59;;;;;;;61.38;25.13;;;;;;;;;;6210105;28;20050;-61
2021/12/07 07:01:00;;;;;;;61.40;24.77;;;;;;;;;;6209253;28;20088;-62
2021/12/07 07:04:02;;;;;;;59.78;24.35;;;;;;;;;;6210698;28;20089;-60
2021/12/07 07:07:03;;;;;;;62.35;23.35;;;;;;;;;;6207034;28;20053;-59
2021/12/07 07:10:05;;;;;;;56.95;22.15;;;;;;;;;;6206797;28;20037;-60
2021/12/07 07:13:06;;;;;;;62.45;23.88;;;;;;;;;;6204191;28;20053;-59
2021/12/07 07:16:07;;;;;;;64.65;24.65;;;;;;;;;;6214323;28;20461;-60
2021/12/07 07:19:07;;;;;;;56.72;23.30;;;;;;;;;;6218634;28;20053;-58
2021/12/07 07:22:08;;;;;;;56.33;21.83;;;;;;;;;;6213837;28;20508;-59
2021/12/07 07:25:09;;;;;;;55.58;22.98;;;;;;;;;;6205741;28;20050;-60
2021/12/07 07:28:10;;;;;;;58.60;22.52;;;;;;;;;;6212095;28;20050;-61
2021/12/07 07:31:12;;;;;;;56.63;22.33;;;;;;;;;;6213806;28;20049;-61
2021/12/07 07:34:13;;;;;;;71.95;31.52;;;;;;;;;;6213110;28;20141;-61
2021/12/07 07:37:14;;;;;;;89.45;39.35;;;;;;;;;;6204522;28;20058;-60
2021/12/07 07:40:18;;;;;;;76.65;33.92;;;;;;;;;;6212219;28;20148;-60
2021/12/07 07:43:19;;;;;;;58.05;23.25;;;;;;;;;;6212833;28;20145;-59
2021/12/07 07:46:19;;;;;;;49.92;22.13;;;;;;;;;;6203526;28;20481;-60
2021/12/07 07:49:20;;;;;;;52.75;20.95;;;;;;;;;;6207694;28;20058;-65
2021/12/07 07:52:21;;;;;;;52.42;22.35;;;;;;;;;;6206653;28;20042;-66
2021/12/07 07:55:22;;;;;;;54.92;21.17;;;;;;;;;;6209016;28;20072;-62
2021/12/07 07:58:23;;;;;;;60.17;24.08;;;;;;;;;;6213771;28;20612;-61
2021/12/07 08:01:24;;;;;;;63.42;23.08;;;;;;;;;;6214117;28;20133;-61
2021/12/07 08:04:24;;;;;;;56.00;21.85;;;;;;;;;;6211504;28;20077;-60
2021/12/07 08:07:25;;;;;;;54.47;20.58;;;;;;;;;;6207578;28;20041;-61
2021/12/07 08:10:28;;;;;;;49.13;19.70;;;;;;;;;;6212484;28;20497;-61
2021/12/07 08:13:32;;;;;;;54.45;20.90;;;;;;;;;;6214535;28;20073;-60
2021/12/07 08:16:33;;;;;;;53.88;19.92;;;;;;;;;;6213686;28;20057;-62
2021/12/07 08:19:34;;;;;;;43.78;18.02;;;;;;;;;;6213411;28;20080;-61
2021/12/07 08:22:35;;;;;;;55.70;21.88;;;;;;;;;;6213295;28;20060;-62
2021/12/07 08:25:43;;;;;;;52.10;20.98;;;;;;;;;;6213630;28;20128;-63
2021/12/07 08:28:44;;;;;;;49.53;20.75;;;;;;;;;;6215266;28;20081;-62
2021/12/07 08:31:44;;;;;;;57.65;21.17;;;;;;;;;;6214190;28;20052;-60
2021/12/07 08:34:45;;;;;;;57.80;20.77;;;;;;;;;;6212710;28;20045;-61
2021/12/07 08:37:47;;;;;;;56.80;20.02;;;;;;;;;;6211988;28;20052;-64
2021/12/07 08:40:53;;;;;;;51.63;20.13;;;;;;;;;;6204292;28;20049;-61
2021/12/07 08:43:54;;;;;;;54.72;20.23;;;;;;;;;;6210368;28;20053;-60
2021/12/07 08:46:55;;;;;;;53.78;19.88;;;;;;;;;;6202580;28;20058;-61
2021/12/07 08:49:57;;;;;;;52.70;21.15;;;;;;;;;;6192670;28;20053;-60
2021/12/07 08:53:02;;;;;;;53.85;19.85;;;;;;;;;;6207437;28;20084;-60
2021/12/07 08:59:39;;;;;;;70.45;26.88;;;;;;;;;;6192648;28;20125;-61
2021/12/07 09:02:40;;;;;;;51.47;20.40;;;;;;;;;;6208014;28;20046;-60
2021/12/07 09:05:41;;;;;;;58.42;20.90;;;;;;;;;;6209766;28;20456;-61
2021/12/07 09:08:42;;;;;;;54.75;19.17;;;;;;;;;;6204509;28;20129;-64
2021/12/07 09:11:43;;;;;;;49.58;19.23;;;;;;;;;;6197938;28;20053;-61
2021/12/07 09:14:45;;;;;;;52.67;18.48;;;;;;;;;;6214603;28;20064;-62
2021/12/07 09:17:46;;;;;;;53.05;19.40;;;;;;;;;;6214636;28;20053;-61
2021/12/07 09:20:47;;;;;;;48.65;18.98;;;;;;;;;;6210091;28;20077;-63
2021/12/07 09:23:48;;;;;;;97.60;37.50;;;;;;;;;;6192922;28;20129;-61
2021/12/07 09:26:50;;;;;;;80.63;29.58;;;;;;;;;;6202730;28;20077;-62
2021/12/07 09:29:51;;;;;;;59.17;25.58;;;;;;;;;;6206022;28;20491;-60
2021/12/07 09:32:52;;;;;;;66.10;25.17;;;;;;;;;;6213845;28;20046;-60
2021/12/07 09:35:54;;;;;;;68.93;27.23;;;;;;;;;;6205358;28;20096;-62
2021/12/07 09:38:56;;;;;;;71.15;27.33;;;;;;;;;;6212584;28;20057;-62
2021/12/07 09:41:56;;;;;;;68.90;26.05;;;;;;;;;;6208930;28;20041;-59
2021/12/07 09:44:57;;;;;;;66.47;25.55;;;;;;;;;;6211735;28;20081;-62
2021/12/07 09:47:59;;;;;;;55.08;21.52;;;;;;;;;;6206794;28;20065;-61
2021/12/07 09:51:03;;;;;;;59.25;22.17;;;;;;;;;;6205192;28;20420;-60
2021/12/07 09:54:05;;;;;;;55.00;21.42;;;;;;;;;;6204103;28;20413;-63
2021/12/07 09:57:05;;;;;;;55.30;21.10;;;;;;;;;;6210874;28;20073;-62
2021/12/07 10:00:09;;;;;;;56.25;20.10;;;;;;;;;;6205172;28;20069;-61
2021/12/07 10:03:11;;;;;;;54.45;21.17;;;;;;;;;;6214988;28;20497;-65
2021/12/07 10:06:12;;;;;;;51.50;18.98;;;;;;;;;;6212971;28;20073;-63
2021/12/07 10:09:13;;;;;;;56.03;20.10;;;;;;;;;;6213377;28;20076;-62
2021/12/07 10:12:19;;;;;;;54.67;22.33;;;;;;;;;;6211349;28;20444;-61
2021/12/07 10:15:20;;;;;;;54.58;21.58;;;;;;;;;;6211509;28;20046;-63
2021/12/07 10:18:24;;;;;;;54.22;22.35;;;;;;;;;;6212517;28;20158;-62
2021/12/07 10:21:30;;;;;;;56.15;23.52;;;;;;;;;;6210583;28;20058;-62
2021/12/07 10:24:38;;;;;;;59.78;25.08;;;;;;;;;;6210487;28;20053;-62
2021/12/07 10:27:43;;;;;;;64.93;27.08;;;;;;;;;;6211252;28;20058;-61
2021/12/07 10:30:44;;;;;;;68.05;26.88;;;;;;;;;;6208473;28;20535;-63
2021/12/07 10:33:53;;;;;;;59.47;24.13;;;;;;;;;;6210614;28;20046;-61
2021/12/07 10:37:03;;;;;;;50.00;20.33;;;;;;;;;;6215764;28;20057;-64
2021/12/07 10:40:11;;;;;;;46.58;19.40;;;;;;;;;;6213811;28;20054;-60
2021/12/07 10:43:12;;;;;;;44.67;19.67;;;;;;;;;;6215796;28;20053;-61
2021/12/07 10:46:43;;;;;;;51.28;21.02;;;;;;;;;;6215228;28;20045;-61
2021/12/07 10:50:00;;;;;;;55.30;21.15;;;;;;;;;;6214072;28;20141;-65
2021/12/07 10:53:01;;;;;;;50.35;19.52;;;;;;;;;;6210528;28;20104;-63
2021/12/07 10:56:02;;;;;;;54.45;21.55;;;;;;;;;;6210912;28;20111;-62
2021/12/07 10:59:06;;;;;;;52.42;20.52;;;;;;;;;;6208469;28;20049;-64
2021/12/07 11:02:14;;;;;;;51.95;20.73;;;;;;;;;;6195673;28;20042;-61
2021/12/07 11:05:35;;;;;;;51.75;21.48;;;;;;;;;;6195175;28;20042;-65
2021/12/07 11:08:36;;;;;;;47.53;20.30;;;;;;;;;;6193746;28;20169;-63
2021/12/07 11:11:36;;;;;;;47.83;19.10;;;;;;;;;;6193746;28;20042;-67
2021/12/07 11:14:51;;;;;;;45.38;18.45;;;;;;;;;;6193626;28;20054;-68
2021/12/07 11:18:03;;;;;;;52.63;20.15;;;;;;;;;;6193868;28;20057;-65
2021/12/07 11:21:10;;;;;;;51.08;19.08;;;;;;;;;;6192934;28;20520;-67
2021/12/07 11:24:11;;;;;;;47.90;19.48;;;;;;;;;;6194717;28;20049;-67
2021/12/07 11:30:35;;;;;;;48.35;19.52;;;;;;;;;;6190032;28;20039;-65
2021/12/07 11:33:36;;;;;;;47.35;18.40;;;;;;;;;;6192148;28;20049;-63
2021/12/07 11:36:45;;;;;;;50.90;19.90;;;;;;;;;;6192350;28;20046;-66
2021/12/07 11:39:54;;;;;;;41.97;17.15;;;;;;;;;;6193425;28;20054;-64
2021/12/07 11:42:55;;;;;;;86.15;32.33;;;;;;;;;;6192537;28;20054;-65
2021/12/07 11:45:56;;;;;;;56.50;22.85;;;;;;;;;;6195209;28;20200;-64
2021/12/07 11:49:07;;;;;;;37.78;16.27;;;;;;;;;;6186793;28;20046;-66
2021/12/07 11:52:10;;;;;;;41.38;17.45;;;;;;;;;;6202275;28;20034;-65
2021/12/07 11:55:11;;;;;;;42.60;16.80;;;;;;;;;;6190533;28;20050;-64
2021/12/07 11:58:12;;;;;;;49.53;20.27;;;;;;;;;;6194930;28;20112;-66
2021/12/07 12:01:13;;;;;;;42.90;19.15;;;;;;;;;;6197539;28;20533;-65
2021/12/07 12:04:16;;;;;;;55.95;20.95;;;;;;;;;;6188801;28;20054;-63
2021/12/07 12:07:19;;;;;;;53.13;21.05;;;;;;;;;;6190518;28;20061;-65
2021/12/07 12:10:21;;;;;;;48.60;19.52;;;;;;;;;;6192927;28;20056;-65
2021/12/07 12:13:42;;;;;;;55.27;21.23;;;;;;;;;;6187800;28;20062;-61
2021/12/07 12:16:56;;;;;;;49.75;21.33;;;;;;;;;;6190310;28;20058;-60
2021/12/07 12:20:34;;;;;;;55.55;23.70;;;;;;;;;;6187848;28;20152;-62
2021/12/07 12:23:58;;;;;;;44.67;19.23;;;;;;;;;;6195332;28;20191;-59
2021/12/07 12:27:14;;;;;;;46.00;19.92;;;;;;;;;;6189559;28;20050;-64
2021/12/07 12:30:30;;;;;;;46.38;18.20;;;;;;;;;;6192584;28;20112;-62
2021/12/07 12:33:53;;;;;;;47.15;21.00;;;;;;;;;;6194922;28;20116;-62
2021/12/07 12:36:59;;;;;;;44.20;17.95;;;;;;;;;;6188215;28;20161;-63
2021/12/07 12:40:02;;;;;;;49.22;21.33;;;;;;;;;;6187104;28;20054;-61
2021/12/07 12:43:04;;;;;;;54.80;24.00;;;;;;;;;;6192905;28;20091;-61
2021/12/07 12:46:04;;;;;;;56.00;22.15;;;;;;;;;;6193495;28;20042;-61
2021/12/07 12:49:10;;;;;;;50.33;22.45;;;;;;;;;;6191506;28;20387;-63
2021/12/07 12:52:11;;;;;;;51.80;21.05;;;;;;;;;;6193382;28;20061;-63
2021/12/07 12:55:38;;;;;;;54.97;22.75;;;;;;;;;;6194300;28;20096;-62
2021/12/07 12:58:42;;;;;;;48.13;19.17;;;;;;;;;;6189531;28;20926;-63
2021/12/07 13:01:45;;;;;;;48.30;19.15;;;;;;;;;;6191568;28;20073;-62
2021/12/07 13:05:04;;;;;;;45.08;18.85;;;;;;;;;;6194523;28;20056;-61
2021/12/07 13:08:23;;;;;;;52.53;20.38;;;;;;;;;;6193322;28;20466;-63
2021/12/07 13:11:41;;;;;;;50.47;19.88;;;;;;;;;;6190044;28;20499;-65
2021/12/07 13:15:03;;;;;;;57.42;22.20;;;;;;;;;;6189424;28;20058;-63
2021/12/07 13:18:05;;;;;;;59.35;23.90;;;;;;;;;;6194600;28;20054;-63
2021/12/07 13:21:25;;;;;;;53.95;21.33;;;;;;;;;;6198170;28;20477;-66
2021/12/07 13:24:36;;;;;;;50.47;21.20;;;;;;;;;;6189204;28;20088;-68
2021/12/07 13:27:37;;;;;;;51.22;21.42;;;;;;;;;;6193281;28;20054;-67
2021/12/07 13:30:41;;;;;;;52.63;21.58;;;;;;;;;;6198759;28;20461;-65
2021/12/07 13:33:54;;;;;;;53.40;22.00;;;;;;;;;;6191207;28;20061;-70
2021/12/07 13:37:02;;;;;;;57.88;22.63;;;;;;;;;;6189997;28;21392;-63
2021/12/07 13:40:16;;;;;;;59.28;22.48;;;;;;;;;;6190279;28;20047;-65
2021/12/07 13:43:35;;;;;;;65.60;24.17;;;;;;;;;;6194954;28;20057;-66
2021/12/07 13:46:36;;;;;;;61.85;22.80;;;;;;;;;;6194224;28;20054;-66
2021/12/07 13:49:37;;;;;;;54.78;22.25;;;;;;;;;;6185356;28;20130;-64
2021/12/07 13:52:45;;;;;;;45.42;20.02;;;;;;;;;;6190196;28;20516;-61
2021/12/07 13:55:46;;;;;;;56.97;21.85;;;;;;;;;;6192362;28;20046;-65
2021/12/07 13:58:56;;;;;;;55.35;22.20;;;;;;;;;;6194009;28;20651;-65
2021/12/07 14:01:58;;;;;;;51.15;20.52;;;;;;;;;;6193312;28;20053;-64
2021/12/07 14:05:15;;;;;;;61.30;23.10;;;;;;;;;;6197550;28;20054;-67
2021/12/07 14:08:16;;;;;;;59.05;22.75;;;;;;;;;;6191873;28;20492;-69
2021/12/07 14:11:19;;;;;;;61.97;22.95;;;;;;;;;;6199572;28;20132;-66
2021/12/07 14:14:21;;;;;;;84.38;30.33;;;;;;;;;;6200060;28;20070;-66
2021/12/07 14:17:22;;;;;;;82.03;29.17;;;;;;;;;;6200454;28;20058;-67
2021/12/07 14:20:48;;;;;;;87.78;31.15;;;;;;;;;;6194234;28;20874;-67
2021/12/07 14:23:54;;;;;;;110.88;36.25;;;;;;;;;;6204431;28;20739;-68
2021/12/07 14:26:54;;;;;;;72.60;25.83;;;;;;;;;;6196755;28;20564;-68
2021/12/07 14:29:55;;;;;;;95.30;33.72;;;;;;;;;;6197448;28;20050;-64
2021/12/07 14:32:57;;;;;;;77.78;27.70;;;;;;;;;;6198767;28;20062;-67
2021/12/07 14:35:58;;;;;;;92.35;31.88;;;;;;;;;;6204807;28;20069;-68
2021/12/07 14:39:07;;;;;;;82.03;28.97;;;;;;;;;;6192691;28;20417;-62
2021/12/07 14:42:13;;;;;;;71.80;27.75;;;;;;;;;;6193134;28;20053;-63
2021/12/07 14:45:14;;;;;;;65.38;24.30;;;;;;;;;;6190717;28;20185;-63
2021/12/07 14:48:15;;;;;;;62.20;24.77;;;;;;;;;;6198197;28;20042;-67
2021/12/07 14:51:21;;;;;;;70.22;28.40;;;;;;;;;;6195157;28;20452;-68
2021/12/07 14:54:22;;;;;;;87.30;33.42;;;;;;;;;;6193047;28;20050;-64
2021/12/07 14:57:23;;;;;;;75.90;31.40;;;;;;;;;;6197045;28;20046;-66
2021/12/07 15:00:24;;;;;;;79.25;32.40;;;;;;;;;;6201803;28;20156;-65
2021/12/07 15:03:55;;;;;;;65.35;24.98;;;;;;;;;;6190655;28;20056;-69
2021/12/07 15:06:58;;;;;;;62.03;23.60;;;;;;;;;;6184544;28;20074;-65
2021/12/07 15:10:09;;;;;;;61.08;23.20;;;;;;;;;;6199118;28;20493;-63
2021/12/07 15:13:10;;;;;;;60.17;23.20;;;;;;;;;;6195593;28;20074;-61
2021/12/07 15:16:13;;;;;;;64.80;24.75;;;;;;;;;;6190389;28;20618;-61
2021/12/07 15:19:14;;;;;;;58.40;24.98;;;;;;;;;;6190939;28;20062;-63
2021/12/07 15:22:15;;;;;;;71.50;26.63;;;;;;;;;;6196758;28;20473;-63
2021/12/07 15:25:16;;;;;;;60.70;26.45;;;;;;;;;;6190290;28;20131;-65
2021/12/07 15:28:16;;;;;;;68.05;27.17;;;;;;;;;;6190529;28;20469;-62
2021/12/07 15:31:21;;;;;;;74.95;30.73;;;;;;;;;;6189897;28;20050;-62
2021/12/07 15:34:25;;;;;;;87.60;34.28;;;;;;;;;;6194468;28;20054;-66
2021/12/07 15:37:27;;;;;;;68.95;29.70;;;;;;;;;;6190577;28;20054;-63
2021/12/07 15:40:27;;;;;;;72.00;28.87;;;;;;;;;;6199683;28;20069;-66
2021/12/07 15:43:29;;;;;;;69.80;29.08;;;;;;;;;;6203807;28;20141;-64
2021/12/07 15:46:31;;;;;;;62.57;26.53;;;;;;;;;;6189062;28;20632;-63
2021/12/07 15:49:38;;;;;;;66.43;26.63;;;;;;;;;;6191015;28;20104;-65
2021/12/07 15:52:43;;;;;;;63.80;27.10;;;;;;;;;;6191812;28;20349;-66
2021/12/07 15:55:47;;;;;;;68.10;23.92;;;;;;;;;;6188464;28;20140;-63
2021/12/07 15:58:48;;;;;;;65.95;24.58;;;;;;;;;;6183135;28;20147;-66
2021/12/07 16:01:51;;;;;;;68.53;26.13;;;;;;;;;;6185981;28;20097;-65
2021/12/07 16:04:51;;;;;;;62.95;25.70;;;;;;;;;;6191005;28;20185;-67
2021/12/07 16:07:52;;;;;;;64.35;26.25;;;;;;;;;;6185362;28;20198;-62
2021/12/07 16:10:55;;;;;;;65.72;27.02;;;;;;;;;;6186022;28;20030;-62
2021/12/07 16:13:58;;;;;;;67.30;28.38;;;;;;;;;;6188859;28;20520;-62
2021/12/07 16:16:59;;;;;;;64.78;25.63;;;;;;;;;;6195652;28;20416;-63
2021/12/07 16:19:59;;;;;;;66.03;27.77;;;;;;;;;;6188706;28;20099;-64
2021/12/07 16:23:01;;;;;;;76.53;29.05;;;;;;;;;;6191534;28;20061;-66
2021/12/07 16:26:04;;;;;;;68.30;27.02;;;;;;;;;;6191789;28;20061;-63
2021/12/07 16:29:05;;;;;;;64.53;27.95;;;;;;;;;;6187263;28;20130;-61
2021/12/07 16:32:07;;;;;;;69.07;26.67;;;;;;;;;;6192597;28;20073;-61
2021/12/07 16:35:10;;;;;;;72.13;27.50;;;;;;;;;;6195195;28;20038;-63
2021/12/07 16:38:14;;;;;;;71.90;28.77;;;;;;;;;;6195010;28;20053;-62
2021/12/07 16:41:15;;;;;;;76.00;29.27;;;;;;;;;;6192434;28;20074;-65
2021/12/07 16:44:16;;;;;;;72.88;28.70;;;;;;;;;;6186199;28;20479;-66
2021/12/07 16:47:17;;;;;;;70.55;26.95;;;;;;;;;;6191010;28;20061;-65
2021/12/07 16:50:22;;;;;;;73.05;27.70;;;;;;;;;;6194408;28;20081;-65
2021/12/07 16:53:24;;;;;;;69.45;27.42;;;;;;;;;;6197543;28;20081;-64
2021/12/07 16:56:26;;;;;;;74.63;26.65;;;;;;;;;;6190597;28;20062;-63
2021/12/07 16:59:26;;;;;;;68.18;25.98;;;;;;;;;;6184436;28;20154;-64
2021/12/07 17:02:28;;;;;;;77.50;31.20;;;;;;;;;;6194542;28;20061;-60
2021/12/07 17:05:30;;;;;;;74.80;30.20;;;;;;;;;;6193427;28;20046;-61
2021/12/07 17:08:31;;;;;;;85.05;31.48;;;;;;;;;;6192986;28;20066;-63
2021/12/07 17:11:31;;;;;;;77.57;29.42;;;;;;;;;;6194023;28;20527;-63
2021/12/07 17:14:34;;;;;;;82.85;32.58;;;;;;;;;;6194784;28;20053;-65
2021/12/07 17:17:35;;;;;;;;;;;;;;;;;;6190730;28;20133;-63
2021/12/07 17:20:37;;;;;;;82.65;29.63;;;;;;;;;;6185344;28;19967;-63
2021/12/07 17:23:38;;;;;;;86.65;32.92;;;;;;;;;;6191247;28;20057;-62
2021/12/07 17:26:38;;;;;;;82.88;29.25;;;;;;;;;;6191663;28;20140;-63
2021/12/07 17:29:40;;;;;;;77.13;28.73;;;;;;;;;;6192957;28;20956;-62
2021/12/07 17:32:41;;;;;;;75.05;29.17;;;;;;;;;;6195667;28;20050;-62
2021/12/07 17:35:43;;;;;;;87.10;34.88;;;;;;;;;;6194621;28;20074;-63
2021/12/07 17:38:47;;;;;;;97.50;38.08;;;;;;;;;;6193173;28;20062;-63
2021/12/07 17:41:48;;;;;;;94.47;36.55;;;;;;;;;;6191356;28;20052;-65
2021/12/07 17:44:50;;;;;;;89.47;36.97;;;;;;;;;;6195742;28;20050;-65
2021/12/07 17:47:53;;;;;;;84.55;34.55;;;;;;;;;;6197978;28;20057;-62
2021/12/07 17:50:55;;;;;;;82.25;32.13;;;;;;;;;;6196924;28;20132;-61
2021/12/07 17:53:56;;;;;;;79.55;32.03;;;;;;;;;;6198499;28;20069;-62
2021/12/07 17:56:58;;;;;;;74.50;30.80;;;;;;;;;;6202507;28;20065;-64
2021/12/07 17:59:58;;;;;;;83.43;33.47;;;;;;;;;;6198440;28;20910;-62
2021/12/07 18:02:59;;;;;;;83.03;32.80;;;;;;;;;;6201479;28;20058;-63
2021/12/07 18:06:00;;;;;;;86.00;31.42;;;;;;;;;;6197312;28;20050;-63
2021/12/07 18:09:01;;;;;;;82.63;31.60;;;;;;;;;;6199089;28;21180;-61
2021/12/07 18:12:02;;;;;;;87.75;32.33;;;;;;;;;;6203231;28;20057;-61
2021/12/07 18:15:05;;;;;;;87.63;32.95;;;;;;;;;;6200716;28;20498;-65
2021/12/07 18:18:07;;;;;;;81.85;31.73;;;;;;;;;;6200534;28;20765;-63
2021/12/07 18:21:09;;;;;;;78.18;29.77;;;;;;;;;;6204576;28;20048;-65
2021/12/07 18:24:10;;;;;;;80.97;32.60;;;;;;;;;;6203628;28;20437;-65
2021/12/07 18:27:13;;;;;;;88.45;36.70;;;;;;;;;;6202943;28;20042;-62
2021/12/07 18:30:17;;;;;;;87.85;36.47;;;;;;;;;;6197612;28;20133;-61
2021/12/07 18:33:22;;;;;;;74.35;31.63;;;;;;;;;;6205776;28;20073;-63
2021/12/07 18:36:23;;;;;;;75.57;30.60;;;;;;;;;;6200902;28;20574;-65
2021/12/07 18:39:25;;;;;;;73.90;31.15;;;;;;;;;;6197647;28;20148;-61
2021/12/07 18:42:26;;;;;;;81.15;30.83;;;;;;;;;;6199800;28;20165;-63
2021/12/07 18:45:29;;;;;;;76.15;30.35;;;;;;;;;;6197068;28;20500;-65
2021/12/07 18:48:31;;;;;;;80.30;30.25;;;;;;;;;;6196457;28;20395;-65
2021/12/07 18:51:32;;;;;;;82.25;30.67;;;;;;;;;;6199105;28;20054;-65
2021/12/07 18:54:33;;;;;;;86.80;33.30;;;;;;;;;;6197026;28;20050;-65
2021/12/07 18:57:34;;;;;;;85.95;34.17;;;;;;;;;;6195979;28;20507;-62
2021/12/07 19:00:37;;;;;;;76.53;30.27;;;;;;;;;;6197843;28;20049;-67
2021/12/07 19:03:39;;;;;;;68.75;26.30;;;;;;;;;;6200486;28;20073;-61
2021/12/07 19:06:40;;;;;;;75.20;28.15;;;;;;;;;;6194303;28;20034;-68
2021/12/07 19:09:41;;;;;;;77.13;28.35;;;;;;;;;;6191883;28;20457;-63
2021/12/07 19:12:42;;;;;;;74.38;27.85;;;;;;;;;;6192871;28;20053;-63
2021/12/07 19:15:44;;;;;;;80.67;30.10;;;;;;;;;;6192182;28;20055;-64
2021/12/07 19:18:45;;;;;;;80.32;28.75;;;;;;;;;;6186529;28;20617;-65
2021/12/07 19:21:46;;;;;;;84.13;31.27;;;;;;;;;;6196549;28;20042;-64
2021/12/07 19:24:46;;;;;;;86.30;30.83;;;;;;;;;;6192571;28;20072;-65
2021/12/07 19:27:48;;;;;;;69.15;26.60;;;;;;;;;;6190444;28;20059;-66
2021/12/07 19:30:49;;;;;;;73.35;26.75;;;;;;;;;;6190222;28;20069;-66